sensor_id;sensor_type;location;lat;lon;timestamp;P1;durP1;ratioP1;P2;durP2;ratioP2
26271;SDS011;13997;48.902;12.472;2022-11-15T04:52:20;27.30;;;15.20;;
26271;SDS011;13997;48.902;12.472;2022-11-15T04:54:45;31.63;;;18.20;;
26271;SDS011;13997;48.902;12.472;2022-11-15T04:57:11;26.40;;;15.80;;
26271;SDS011;13997;48.902;12.472;2022-11-15T04:59:37;22.50;;;13.80;;
26271;SDS011;13997;48.902;12.472;2022-11-15T05:02:02;22.27;;;12.93;;
26271;SDS011;13997;48.902;12.472;2022-11-15T05:04:28;23.60;;;12.80;;
26271;SDS011;13997;48.902;12.472;2022-11-15T05:06:54;20.92;;;12.60;;
26271;SDS011;13997;48.902;12.472;2022-11-15T05:09:20;20.67;;;12.98;;
26271;SDS011;13997;48.902;12.472;2022-11-15T05:11:47;24.35;;;13.27;;
26271;SDS011;13997;48.902;12.472;2022-11-15T05:14:12;22.63;;;13.20;;
26271;SDS011;13997;48.902;12.472;2022-11-15T05:16:38;29.40;;;13.88;;
26271;SDS011;13997;48.902;12.472;2022-11-15T05:19:04;22.83;;;13.32;;
26271;SDS011;13997;48.902;12.472;2022-11-15T05:21:31;20.92;;;12.98;;
26271;SDS011;13997;48.902;12.472;2022-11-15T05:23:57;27.75;;;15.25;;
26271;SDS011;13997;48.902;12.472;2022-11-15T05:46:50;35.25;;;17.05;;
26271;SDS011;13997;48.902;12.472;2022-11-15T05:49:21;33.20;;;15.30;;
26271;SDS011;13997;48.902;12.472;2022-11-15T05:51:52;20.80;;;11.68;;
26271;SDS011;13997;48.902;12.472;2022-11-15T05:54:18;18.25;;;10.27;;
26271;SDS011;13997;48.902;12.472;2022-11-15T05:56:46;17.83;;;9.25;;
26271;SDS011;13997;48.902;12.472;2022-11-15T05:59:12;20.98;;;10.77;;
26271;SDS011;13997;48.902;12.472;2022-11-15T06:01:38;17.70;;;10.57;;
26271;SDS011;13997;48.902;12.472;2022-11-15T06:04:05;23.35;;;11.52;;
26271;SDS011;13997;48.902;12.472;2022-11-15T06:06:30;20.98;;;10.63;;
26271;SDS011;13997;48.902;12.472;2022-11-15T06:08:56;20.05;;;10.82;;
26271;SDS011;13997;48.902;12.472;2022-11-15T06:11:22;24.80;;;10.93;;
26271;SDS011;13997;48.902;12.472;2022-11-15T06:13:47;20.65;;;9.93;;
26271;SDS011;13997;48.902;12.472;2022-11-15T06:16:13;20.73;;;9.60;;
26271;SDS011;13997;48.902;12.472;2022-11-15T06:18:38;18.23;;;9.35;;
26271;SDS011;13997;48.902;12.472;2022-11-15T06:21:04;72.28;;;22.92;;
26271;SDS011;13997;48.902;12.472;2022-11-15T06:23:34;33.75;;;14.40;;
26271;SDS011;13997;48.902;12.472;2022-11-15T06:26:00;24.33;;;9.80;;
26271;SDS011;13997;48.902;12.472;2022-11-15T06:28:30;16.13;;;9.10;;
26271;SDS011;13997;48.902;12.472;2022-11-15T06:31:06;16.08;;;8.57;;
26271;SDS011;13997;48.902;12.472;2022-11-15T06:36:05;17.02;;;10.00;;
26271;SDS011;13997;48.902;12.472;2022-11-15T06:38:32;29.52;;;10.38;;
26271;SDS011;13997;48.902;12.472;2022-11-15T06:41:10;25.17;;;10.13;;
26271;SDS011;13997;48.902;12.472;2022-11-15T06:43:37;20.33;;;9.68;;
26271;SDS011;13997;48.902;12.472;2022-11-15T06:46:04;20.23;;;9.80;;
26271;SDS011;13997;48.902;12.472;2022-11-15T06:48:31;18.92;;;10.38;;
26271;SDS011;13997;48.902;12.472;2022-11-15T06:50:59;19.00;;;10.30;;
26271;SDS011;13997;48.902;12.472;2022-11-15T06:53:26;19.65;;;10.63;;
26271;SDS011;13997;48.902;12.472;2022-11-15T06:55:52;26.30;;;11.23;;
26271;SDS011;13997;48.902;12.472;2022-11-15T06:58:18;27.63;;;12.23;;
26271;SDS011;13997;48.902;12.472;2022-11-15T07:00:45;18.33;;;11.38;;
26271;SDS011;13997;48.902;12.472;2022-11-15T07:03:11;20.52;;;11.93;;
26271;SDS011;13997;48.902;12.472;2022-11-15T07:05:37;19.95;;;11.18;;
26271;SDS011;13997;48.902;12.472;2022-11-15T07:08:02;21.20;;;11.25;;
26271;SDS011;13997;48.902;12.472;2022-11-15T07:10:28;21.60;;;12.15;;
26271;SDS011;13997;48.902;12.472;2022-11-15T07:12:55;24.73;;;12.52;;
26271;SDS011;13997;48.902;12.472;2022-11-15T07:15:22;21.02;;;11.55;;
26271;SDS011;13997;48.902;12.472;2022-11-15T07:17:49;22.13;;;13.23;;
26271;SDS011;13997;48.902;12.472;2022-11-15T07:20:15;22.48;;;12.50;;
26271;SDS011;13997;48.902;12.472;2022-11-15T07:22:42;21.30;;;12.70;;
26271;SDS011;13997;48.902;12.472;2022-11-15T07:25:10;22.45;;;12.27;;
26271;SDS011;13997;48.902;12.472;2022-11-15T07:27:35;19.20;;;11.90;;
26271;SDS011;13997;48.902;12.472;2022-11-15T07:30:01;20.25;;;12.55;;
26271;SDS011;13997;48.902;12.472;2022-11-15T07:32:27;20.50;;;11.50;;
26271;SDS011;13997;48.902;12.472;2022-11-15T07:34:53;18.00;;;11.02;;
26271;SDS011;13997;48.902;12.472;2022-11-15T07:37:19;20.80;;;12.35;;
26271;SDS011;13997;48.902;12.472;2022-11-15T07:39:44;17.30;;;10.98;;
26271;SDS011;13997;48.902;12.472;2022-11-15T07:42:11;19.80;;;10.70;;
26271;SDS011;13997;48.902;12.472;2022-11-15T07:44:55;18.92;;;11.30;;
26271;SDS011;13997;48.902;12.472;2022-11-15T07:47:21;20.20;;;11.60;;
26271;SDS011;13997;48.902;12.472;2022-11-15T07:49:47;18.70;;;10.45;;
26271;SDS011;13997;48.902;12.472;2022-11-15T07:52:12;19.90;;;10.85;;
26271;SDS011;13997;48.902;12.472;2022-11-15T07:54:38;22.20;;;11.80;;
26271;SDS011;13997;48.902;12.472;2022-11-15T07:57:04;20.10;;;11.23;;
26271;SDS011;13997;48.902;12.472;2022-11-15T07:59:32;22.45;;;12.43;;
26271;SDS011;13997;48.902;12.472;2022-11-15T08:01:58;23.17;;;12.10;;
26271;SDS011;13997;48.902;12.472;2022-11-15T08:04:23;21.20;;;11.38;;
26271;SDS011;13997;48.902;12.472;2022-11-15T08:06:49;21.77;;;11.40;;
26271;SDS011;13997;48.902;12.472;2022-11-15T08:09:15;22.98;;;11.98;;
26271;SDS011;13997;48.902;12.472;2022-11-15T08:11:40;18.95;;;11.30;;
26271;SDS011;13997;48.902;12.472;2022-11-15T08:14:06;18.77;;;11.30;;
26271;SDS011;13997;48.902;12.472;2022-11-15T08:16:32;22.67;;;12.27;;
26271;SDS011;13997;48.902;12.472;2022-11-15T08:18:57;20.85;;;12.40;;
26271;SDS011;13997;48.902;12.472;2022-11-15T08:21:23;32.33;;;11.90;;
26271;SDS011;13997;48.902;12.472;2022-11-15T08:23:49;21.48;;;11.77;;
26271;SDS011;13997;48.902;12.472;2022-11-15T08:26:15;21.13;;;11.38;;
26271;SDS011;13997;48.902;12.472;2022-11-15T08:28:41;21.10;;;11.63;;
26271;SDS011;13997;48.902;12.472;2022-11-15T08:31:11;24.90;;;12.45;;
26271;SDS011;13997;48.902;12.472;2022-11-15T08:33:42;25.60;;;12.38;;
26271;SDS011;13997;48.902;12.472;2022-11-15T08:36:10;21.90;;;13.48;;
26271;SDS011;13997;48.902;12.472;2022-11-15T08:38:40;30.95;;;13.80;;
26271;SDS011;13997;48.902;12.472;2022-11-15T08:41:06;25.27;;;13.32;;
26271;SDS011;13997;48.902;12.472;2022-11-15T08:43:35;23.52;;;13.07;;
26271;SDS011;13997;48.902;12.472;2022-11-15T08:46:01;21.20;;;13.38;;
26271;SDS011;13997;48.902;12.472;2022-11-15T08:48:26;20.80;;;12.95;;
26271;SDS011;13997;48.902;12.472;2022-11-15T08:50:55;24.63;;;12.90;;
26271;SDS011;13997;48.902;12.472;2022-11-15T08:53:21;29.33;;;13.80;;
26271;SDS011;13997;48.902;12.472;2022-11-15T08:55:47;23.33;;;14.13;;
26271;SDS011;13997;48.902;12.472;2022-11-15T08:58:13;26.42;;;17.60;;
26271;SDS011;13997;48.902;12.472;2022-11-15T09:00:38;24.23;;;14.48;;
26271;SDS011;13997;48.902;12.472;2022-11-15T09:03:05;29.45;;;15.10;;
26271;SDS011;13997;48.902;12.472;2022-11-15T09:05:31;24.77;;;14.15;;
26271;SDS011;13997;48.902;12.472;2022-11-15T09:07:57;25.92;;;15.25;;
26271;SDS011;13997;48.902;12.472;2022-11-15T09:10:22;23.08;;;13.57;;
26271;SDS011;13997;48.902;12.472;2022-11-15T09:12:49;22.05;;;14.10;;
26271;SDS011;13997;48.902;12.472;2022-11-15T09:15:15;22.90;;;14.88;;
26271;SDS011;13997;48.902;12.472;2022-11-15T09:17:41;20.48;;;13.32;;
26271;SDS011;13997;48.902;12.472;2022-11-15T09:20:07;25.38;;;15.80;;
26271;SDS011;13997;48.902;12.472;2022-11-15T09:22:34;22.98;;;13.80;;
26271;SDS011;13997;48.902;12.472;2022-11-15T09:25:01;24.13;;;14.68;;
26271;SDS011;13997;48.902;12.472;2022-11-15T09:27:28;21.98;;;14.23;;
26271;SDS011;13997;48.902;12.472;2022-11-15T09:29:55;26.33;;;14.25;;
26271;SDS011;13997;48.902;12.472;2022-11-15T09:32:20;22.33;;;14.10;;
26271;SDS011;13997;48.902;12.472;2022-11-15T09:34:48;25.80;;;14.18;;
26271;SDS011;13997;48.902;12.472;2022-11-15T09:37:16;31.27;;;14.82;;
26271;SDS011;13997;48.902;12.472;2022-11-15T09:39:42;27.52;;;16.85;;
26271;SDS011;13997;48.902;12.472;2022-11-15T09:50:01;23.50;;;15.32;;
26271;SDS011;13997;48.902;12.472;2022-11-15T09:52:33;23.92;;;14.77;;
26271;SDS011;13997;48.902;12.472;2022-11-15T09:55:01;22.70;;;13.85;;
26271;SDS011;13997;48.902;12.472;2022-11-15T09:57:31;31.63;;;14.70;;
26271;SDS011;13997;48.902;12.472;2022-11-15T10:03:43;24.52;;;14.10;;
26271;SDS011;13997;48.902;12.472;2022-11-15T10:06:02;20.35;;;13.65;;
26271;SDS011;13997;48.902;12.472;2022-11-15T10:11:20;22.20;;;13.52;;
26271;SDS011;13997;48.902;12.472;2022-11-15T10:13:53;22.77;;;13.82;;
26271;SDS011;13997;48.902;12.472;2022-11-15T10:24:42;20.77;;;13.23;;
26271;SDS011;13997;48.902;12.472;2022-11-15T10:27:10;19.17;;;12.88;;
26271;SDS011;13997;48.902;12.472;2022-11-15T10:32:11;23.38;;;13.95;;
26271;SDS011;13997;48.902;12.472;2022-11-15T10:34:38;20.88;;;13.05;;
26271;SDS011;13997;48.902;12.472;2022-11-15T10:37:04;20.92;;;12.88;;
26271;SDS011;13997;48.902;12.472;2022-11-15T11:45:55;23.63;;;14.50;;
26271;SDS011;13997;48.902;12.472;2022-11-15T11:48:48;24.00;;;15.13;;
26271;SDS011;13997;48.902;12.472;2022-11-15T11:51:31;24.55;;;14.43;;
26271;SDS011;13997;48.902;12.472;2022-11-15T11:56:59;27.30;;;14.82;;
26271;SDS011;13997;48.902;12.472;2022-11-15T11:59:38;22.55;;;14.52;;
26271;SDS011;13997;48.902;12.472;2022-11-15T12:02:13;25.63;;;14.82;;
26271;SDS011;13997;48.902;12.472;2022-11-15T12:07:34;25.20;;;14.07;;
26271;SDS011;13997;48.902;12.472;2022-11-15T12:10:21;28.83;;;15.82;;
26271;SDS011;13997;48.902;12.472;2022-11-15T12:15:48;24.20;;;14.38;;
26271;SDS011;13997;48.902;12.472;2022-11-15T12:18:52;24.73;;;14.52;;
26271;SDS011;13997;48.902;12.472;2022-11-15T12:26:45;23.02;;;14.63;;
26271;SDS011;13997;48.902;12.472;2022-11-15T12:29:16;24.20;;;15.25;;
26271;SDS011;13997;48.902;12.472;2022-11-15T12:31:49;22.40;;;14.18;;
26271;SDS011;13997;48.902;12.472;2022-11-15T12:36:46;22.02;;;13.85;;
26271;SDS011;13997;48.902;12.472;2022-11-15T12:39:14;27.80;;;17.13;;
26271;SDS011;13997;48.902;12.472;2022-11-15T12:59:50;23.23;;;15.02;;
26271;SDS011;13997;48.902;12.472;2022-11-15T13:02:21;23.50;;;15.23;;
26271;SDS011;13997;48.902;12.472;2022-11-15T13:04:49;24.30;;;15.13;;
26271;SDS011;13997;48.902;12.472;2022-11-15T13:10:45;21.80;;;13.85;;
26271;SDS011;13997;48.902;12.472;2022-11-15T13:12:49;21.63;;;13.85;;
26271;SDS011;13997;48.902;12.472;2022-11-15T13:17:53;21.52;;;13.63;;
26271;SDS011;13997;48.902;12.472;2022-11-15T13:27:52;22.80;;;15.05;;
26271;SDS011;13997;48.902;12.472;2022-11-15T13:30:22;23.52;;;14.75;;
26271;SDS011;13997;48.902;12.472;2022-11-15T13:32:50;24.00;;;15.70;;
26271;SDS011;13997;48.902;12.472;2022-11-15T13:35:24;23.13;;;15.23;;
26271;SDS011;13997;48.902;12.472;2022-11-15T13:37:53;24.85;;;15.30;;
26271;SDS011;13997;48.902;12.472;2022-11-15T13:40:21;28.10;;;17.77;;
26271;SDS011;13997;48.902;12.472;2022-11-15T13:43:15;25.23;;;15.35;;
26271;SDS011;13997;48.902;12.472;2022-11-15T13:46:05;29.80;;;15.82;;
26271;SDS011;13997;48.902;12.472;2022-11-15T13:49:08;24.02;;;15.23;;
26271;SDS011;13997;48.902;12.472;2022-11-15T13:57:13;27.00;;;15.55;;
26271;SDS011;13997;48.902;12.472;2022-11-15T13:59:45;27.38;;;15.68;;
26271;SDS011;13997;48.902;12.472;2022-11-15T14:02:15;23.40;;;14.70;;
26271;SDS011;13997;48.902;12.472;2022-11-15T14:04:51;22.38;;;14.93;;
26271;SDS011;13997;48.902;12.472;2022-11-15T14:07:37;27.80;;;15.73;;
26271;SDS011;13997;48.902;12.472;2022-11-15T14:12:58;25.25;;;16.10;;
26271;SDS011;13997;48.902;12.472;2022-11-15T14:15:25;27.30;;;15.30;;
26271;SDS011;13997;48.902;12.472;2022-11-15T14:17:52;25.95;;;16.35;;
26271;SDS011;13997;48.902;12.472;2022-11-15T14:23:30;26.88;;;16.10;;
26271;SDS011;13997;48.902;12.472;2022-11-15T14:25:55;26.60;;;15.75;;
26271;SDS011;13997;48.902;12.472;2022-11-15T14:30:47;26.05;;;16.38;;
26271;SDS011;13997;48.902;12.472;2022-11-15T14:38:37;25.98;;;16.05;;
26271;SDS011;13997;48.902;12.472;2022-11-15T14:41:03;25.38;;;15.00;;
26271;SDS011;13997;48.902;12.472;2022-11-15T14:43:30;30.45;;;15.95;;
26271;SDS011;13997;48.902;12.472;2022-11-15T14:45:56;24.42;;;15.18;;
26271;SDS011;13997;48.902;12.472;2022-11-15T14:48:22;24.98;;;15.40;;
26271;SDS011;13997;48.902;12.472;2022-11-15T14:50:48;27.92;;;15.55;;
26271;SDS011;13997;48.902;12.472;2022-11-15T14:53:15;25.58;;;15.52;;
26271;SDS011;13997;48.902;12.472;2022-11-15T14:55:41;25.55;;;14.82;;
26271;SDS011;13997;48.902;12.472;2022-11-15T14:58:07;29.40;;;15.38;;
26271;SDS011;13997;48.902;12.472;2022-11-15T15:00:34;24.80;;;14.23;;
26271;SDS011;13997;48.902;12.472;2022-11-15T15:03:01;27.25;;;15.68;;
26271;SDS011;13997;48.902;12.472;2022-11-15T15:05:30;24.58;;;15.10;;
26271;SDS011;13997;48.902;12.472;2022-11-15T15:07:57;28.98;;;15.80;;
26271;SDS011;13997;48.902;12.472;2022-11-15T15:10:23;25.85;;;15.18;;
26271;SDS011;13997;48.902;12.472;2022-11-15T15:12:52;28.42;;;14.20;;
26271;SDS011;13997;48.902;12.472;2022-11-15T15:15:21;24.70;;;14.88;;
26271;SDS011;13997;48.902;12.472;2022-11-15T15:17:51;35.70;;;20.33;;
26271;SDS011;13997;48.902;12.472;2022-11-15T15:20:17;31.63;;;18.92;;
26271;SDS011;13997;48.902;12.472;2022-11-15T15:22:43;26.90;;;15.45;;
26271;SDS011;13997;48.902;12.472;2022-11-15T15:27:46;30.95;;;19.55;;
26271;SDS011;13997;48.902;12.472;2022-11-15T15:30:11;32.38;;;19.02;;
26271;SDS011;13997;48.902;12.472;2022-11-15T15:32:37;32.95;;;20.30;;
26271;SDS011;13997;48.902;12.472;2022-11-15T15:35:03;42.22;;;22.45;;
26271;SDS011;13997;48.902;12.472;2022-11-15T15:37:29;38.40;;;23.75;;
26271;SDS011;13997;48.902;12.472;2022-11-15T15:39:58;45.70;;;24.65;;
26271;SDS011;13997;48.902;12.472;2022-11-15T15:42:24;44.40;;;23.33;;
26271;SDS011;13997;48.902;12.472;2022-11-15T15:44:50;60.40;;;29.15;;
26271;SDS011;13997;48.902;12.472;2022-11-15T15:47:17;54.08;;;24.60;;
26271;SDS011;13997;48.902;12.472;2022-11-15T15:49:45;59.67;;;28.95;;
26271;SDS011;13997;48.902;12.472;2022-11-15T15:52:11;44.25;;;23.90;;
26271;SDS011;13997;48.902;12.472;2022-11-15T15:54:37;42.22;;;22.30;;
26271;SDS011;13997;48.902;12.472;2022-11-15T15:57:04;38.97;;;21.20;;
26271;SDS011;13997;48.902;12.472;2022-11-15T15:59:31;30.10;;;18.35;;
26271;SDS011;13997;48.902;12.472;2022-11-15T16:01:56;36.63;;;22.05;;
26271;SDS011;13997;48.902;12.472;2022-11-15T16:04:22;41.78;;;24.75;;
26271;SDS011;13997;48.902;12.472;2022-11-15T16:06:48;53.53;;;28.25;;
26271;SDS011;13997;48.902;12.472;2022-11-15T16:15:48;48.72;;;25.88;;
26271;SDS011;13997;48.902;12.472;2022-11-15T16:18:17;44.00;;;25.48;;
26271;SDS011;13997;48.902;12.472;2022-11-15T16:20:47;48.45;;;25.27;;
26271;SDS011;13997;48.902;12.472;2022-11-15T16:23:16;37.40;;;22.55;;
26271;SDS011;13997;48.902;12.472;2022-11-15T16:25:46;41.72;;;21.73;;
26271;SDS011;13997;48.902;12.472;2022-11-15T16:28:20;34.25;;;21.35;;
26271;SDS011;13997;48.902;12.472;2022-11-15T16:30:47;40.25;;;21.25;;
26271;SDS011;13997;48.902;12.472;2022-11-15T16:33:13;38.58;;;21.33;;
26271;SDS011;13997;48.902;12.472;2022-11-15T16:35:39;42.75;;;21.60;;
26271;SDS011;13997;48.902;12.472;2022-11-15T16:38:05;40.90;;;21.02;;
26271;SDS011;13997;48.902;12.472;2022-11-15T16:40:33;39.03;;;21.55;;
26271;SDS011;13997;48.902;12.472;2022-11-15T16:43:00;38.78;;;22.17;;
26271;SDS011;13997;48.902;12.472;2022-11-15T16:45:27;54.78;;;32.30;;
26271;SDS011;13997;48.902;12.472;2022-11-15T16:47:53;41.30;;;23.95;;
26271;SDS011;13997;48.902;12.472;2022-11-15T16:50:25;44.65;;;21.23;;
26271;SDS011;13997;48.902;12.472;2022-11-15T16:52:53;34.50;;;20.08;;
26271;SDS011;13997;48.902;12.472;2022-11-15T16:55:21;36.97;;;22.25;;
26271;SDS011;13997;48.902;12.472;2022-11-15T16:57:48;41.92;;;20.33;;
26271;SDS011;13997;48.902;12.472;2022-11-15T17:00:14;35.78;;;19.75;;
26271;SDS011;13997;48.902;12.472;2022-11-15T17:02:42;34.05;;;19.48;;
26271;SDS011;13997;48.902;12.472;2022-11-15T17:05:08;35.13;;;19.08;;
26271;SDS011;13997;48.902;12.472;2022-11-15T17:07:34;41.10;;;19.25;;
26271;SDS011;13997;48.902;12.472;2022-11-15T17:10:00;26.98;;;17.15;;
26271;SDS011;13997;48.902;12.472;2022-11-15T17:12:25;31.88;;;18.08;;
26271;SDS011;13997;48.902;12.472;2022-11-15T17:14:51;35.90;;;18.15;;
26271;SDS011;13997;48.902;12.472;2022-11-15T17:17:17;34.65;;;18.50;;
26271;SDS011;13997;48.902;12.472;2022-11-15T17:19:42;34.10;;;18.60;;
26271;SDS011;13997;48.902;12.472;2022-11-15T17:22:08;40.67;;;20.10;;
26271;SDS011;13997;48.902;12.472;2022-11-15T17:24:34;38.53;;;20.08;;
26271;SDS011;13997;48.902;12.472;2022-11-15T17:26:59;39.53;;;19.73;;
26271;SDS011;13997;48.902;12.472;2022-11-15T17:29:25;42.65;;;21.13;;
26271;SDS011;13997;48.902;12.472;2022-11-15T17:31:51;36.85;;;19.23;;
26271;SDS011;13997;48.902;12.472;2022-11-15T17:34:16;28.50;;;16.75;;
26271;SDS011;13997;48.902;12.472;2022-11-15T17:36:42;26.45;;;15.00;;
26271;SDS011;13997;48.902;12.472;2022-11-15T17:39:07;25.08;;;14.13;;
26271;SDS011;13997;48.902;12.472;2022-11-15T17:41:33;26.02;;;13.18;;
26271;SDS011;13997;48.902;12.472;2022-11-15T17:43:59;25.05;;;13.70;;
26271;SDS011;13997;48.902;12.472;2022-11-15T17:46:27;25.13;;;13.75;;
26271;SDS011;13997;48.902;12.472;2022-11-15T17:48:54;24.98;;;13.98;;
26271;SDS011;13997;48.902;12.472;2022-11-15T17:51:21;20.10;;;12.52;;
26271;SDS011;13997;48.902;12.472;2022-11-15T17:53:48;20.02;;;12.27;;
26271;SDS011;13997;48.902;12.472;2022-11-15T17:56:18;30.63;;;17.00;;
26271;SDS011;13997;48.902;12.472;2022-11-15T17:58:49;36.63;;;19.00;;
26271;SDS011;13997;48.902;12.472;2022-11-15T18:01:20;30.80;;;17.23;;
26271;SDS011;13997;48.902;12.472;2022-11-15T18:03:47;25.80;;;15.82;;
26271;SDS011;13997;48.902;12.472;2022-11-15T18:06:13;26.33;;;16.23;;
26271;SDS011;13997;48.902;12.472;2022-11-15T18:08:40;31.75;;;19.23;;
26271;SDS011;13997;48.902;12.472;2022-11-15T18:11:17;40.40;;;18.38;;
26271;SDS011;13997;48.902;12.472;2022-11-15T18:13:46;38.40;;;21.55;;
26271;SDS011;13997;48.902;12.472;2022-11-15T18:16:15;64.47;;;37.65;;
26271;SDS011;13997;48.902;12.472;2022-11-15T18:18:42;62.05;;;35.85;;
26271;SDS011;13997;48.902;12.472;2022-11-15T18:21:12;77.57;;;40.47;;
26271;SDS011;13997;48.902;12.472;2022-11-15T18:23:40;52.70;;;29.80;;
26271;SDS011;13997;48.902;12.472;2022-11-15T18:26:09;36.22;;;22.10;;
26271;SDS011;13997;48.902;12.472;2022-11-15T18:28:41;31.65;;;18.25;;
26271;SDS011;13997;48.902;12.472;2022-11-15T18:31:21;36.00;;;19.77;;
26271;SDS011;13997;48.902;12.472;2022-11-15T18:33:49;30.50;;;16.77;;
26271;SDS011;13997;48.902;12.472;2022-11-15T18:36:17;33.92;;;19.00;;
26271;SDS011;13997;48.902;12.472;2022-11-15T18:38:44;36.50;;;20.48;;
26271;SDS011;13997;48.902;12.472;2022-11-15T18:43:44;35.13;;;20.90;;
26271;SDS011;13997;48.902;12.472;2022-11-15T18:46:15;49.95;;;25.40;;
26271;SDS011;13997;48.902;12.472;2022-11-15T18:48:45;52.03;;;30.05;;
26271;SDS011;13997;48.902;12.472;2022-11-15T18:51:15;34.42;;;19.55;;
26271;SDS011;13997;48.902;12.472;2022-11-15T18:53:42;34.58;;;19.00;;
26271;SDS011;13997;48.902;12.472;2022-11-15T18:56:09;27.40;;;17.67;;
26271;SDS011;13997;48.902;12.472;2022-11-15T18:58:38;25.75;;;16.40;;
26271;SDS011;13997;48.902;12.472;2022-11-15T19:03:38;27.73;;;17.98;;
26271;SDS011;13997;48.902;12.472;2022-11-15T19:06:10;34.63;;;18.98;;
26271;SDS011;13997;48.902;12.472;2022-11-15T19:08:38;36.17;;;20.85;;
26271;SDS011;13997;48.902;12.472;2022-11-15T19:11:15;34.47;;;20.42;;
26271;SDS011;13997;48.902;12.472;2022-11-15T19:13:45;30.80;;;18.98;;
26271;SDS011;13997;48.902;12.472;2022-11-15T19:16:12;31.48;;;17.35;;
26271;SDS011;13997;48.902;12.472;2022-11-15T19:18:39;33.25;;;19.08;;
26271;SDS011;13997;48.902;12.472;2022-11-15T19:21:06;34.88;;;18.60;;
26271;SDS011;13997;48.902;12.472;2022-11-15T19:23:34;34.28;;;20.42;;
26271;SDS011;13997;48.902;12.472;2022-11-15T19:26:01;30.67;;;18.25;;
26271;SDS011;13997;48.902;12.472;2022-11-15T19:28:31;30.13;;;18.52;;
26271;SDS011;13997;48.902;12.472;2022-11-15T19:31:07;28.30;;;18.45;;
26271;SDS011;13997;48.902;12.472;2022-11-15T19:33:36;35.65;;;21.25;;
26271;SDS011;13997;48.902;12.472;2022-11-15T19:36:03;32.97;;;20.17;;
26271;SDS011;13997;48.902;12.472;2022-11-15T19:38:32;31.20;;;19.73;;
26271;SDS011;13997;48.902;12.472;2022-11-15T19:40:59;34.22;;;21.00;;
26271;SDS011;13997;48.902;12.472;2022-11-15T19:43:26;37.25;;;21.85;;
26271;SDS011;13997;48.902;12.472;2022-11-15T19:45:53;37.80;;;20.50;;
26271;SDS011;13997;48.902;12.472;2022-11-15T19:48:19;33.78;;;19.73;;
26271;SDS011;13997;48.902;12.472;2022-11-15T19:50:45;31.05;;;19.15;;
26271;SDS011;13997;48.902;12.472;2022-11-15T19:53:10;28.33;;;17.40;;
26271;SDS011;13997;48.902;12.472;2022-11-15T19:55:36;31.63;;;20.02;;
26271;SDS011;13997;48.902;12.472;2022-11-15T19:58:01;33.97;;;19.98;;
26271;SDS011;13997;48.902;12.472;2022-11-15T20:00:27;33.85;;;20.42;;
26271;SDS011;13997;48.902;12.472;2022-11-15T20:02:55;37.70;;;23.50;;
26271;SDS011;13997;48.902;12.472;2022-11-15T20:05:21;35.75;;;21.27;;
26271;SDS011;13997;48.902;12.472;2022-11-15T20:07:47;34.38;;;19.88;;
26271;SDS011;13997;48.902;12.472;2022-11-15T20:10:13;48.90;;;28.02;;
26271;SDS011;13997;48.902;12.472;2022-11-15T20:12:39;62.60;;;33.97;;
26271;SDS011;13997;48.902;12.472;2022-11-15T20:15:05;57.80;;;32.60;;
26271;SDS011;13997;48.902;12.472;2022-11-15T20:17:31;47.53;;;26.98;;
26271;SDS011;13997;48.902;12.472;2022-11-15T20:19:57;47.60;;;25.77;;
26271;SDS011;13997;48.902;12.472;2022-11-15T20:22:23;52.72;;;26.95;;
26271;SDS011;13997;48.902;12.472;2022-11-15T20:24:49;42.72;;;22.77;;
26271;SDS011;13997;48.902;12.472;2022-11-15T20:27:14;46.78;;;23.98;;
26271;SDS011;13997;48.902;12.472;2022-11-15T20:29:43;47.10;;;24.67;;
26271;SDS011;13997;48.902;12.472;2022-11-15T20:32:09;42.53;;;23.02;;
26271;SDS011;13997;48.902;12.472;2022-11-15T20:34:35;43.13;;;22.92;;
26271;SDS011;13997;48.902;12.472;2022-11-15T20:37:01;42.85;;;24.23;;
26271;SDS011;13997;48.902;12.472;2022-11-15T20:39:27;51.08;;;26.08;;
26271;SDS011;13997;48.902;12.472;2022-11-15T20:41:52;48.95;;;26.33;;
26271;SDS011;13997;48.902;12.472;2022-11-15T20:44:18;48.53;;;24.98;;
26271;SDS011;13997;48.902;12.472;2022-11-15T20:46:44;46.67;;;25.65;;
26271;SDS011;13997;48.902;12.472;2022-11-15T20:49:09;49.72;;;23.85;;
26271;SDS011;13997;48.902;12.472;2022-11-15T20:51:35;45.53;;;24.65;;
26271;SDS011;13997;48.902;12.472;2022-11-15T20:54:01;43.45;;;24.83;;
26271;SDS011;13997;48.902;12.472;2022-11-15T20:56:27;48.30;;;26.15;;
26271;SDS011;13997;48.902;12.472;2022-11-15T20:58:53;51.67;;;27.38;;
26271;SDS011;13997;48.902;12.472;2022-11-15T21:01:20;58.85;;;27.00;;
26271;SDS011;13997;48.902;12.472;2022-11-15T21:03:48;58.90;;;26.13;;
26271;SDS011;13997;48.902;12.472;2022-11-15T21:06:17;60.45;;;26.30;;
26271;SDS011;13997;48.902;12.472;2022-11-15T21:08:45;52.67;;;27.25;;
26271;SDS011;13997;48.902;12.472;2022-11-15T21:11:31;60.75;;;28.80;;
26271;SDS011;13997;48.902;12.472;2022-11-15T21:14:15;62.40;;;28.58;;
26271;SDS011;13997;48.902;12.472;2022-11-15T21:16:40;66.70;;;30.73;;
26271;SDS011;13997;48.902;12.472;2022-11-15T21:19:06;72.25;;;29.25;;
26271;SDS011;13997;48.902;12.472;2022-11-15T21:21:32;91.10;;;28.67;;
26271;SDS011;13997;48.902;12.472;2022-11-15T21:24:01;71.95;;;29.58;;
26271;SDS011;13997;48.902;12.472;2022-11-15T21:26:27;100.30;;;30.15;;
26271;SDS011;13997;48.902;12.472;2022-11-15T21:28:53;98.35;;;28.77;;
26271;SDS011;13997;48.902;12.472;2022-11-15T21:31:19;96.57;;;29.90;;
26271;SDS011;13997;48.902;12.472;2022-11-15T21:33:44;77.47;;;31.40;;
26271;SDS011;13997;48.902;12.472;2022-11-15T21:36:11;81.55;;;32.00;;
26271;SDS011;13997;48.902;12.472;2022-11-15T21:38:36;76.80;;;29.20;;
26271;SDS011;13997;48.902;12.472;2022-11-15T21:41:02;115.65;;;30.27;;
26271;SDS011;13997;48.902;12.472;2022-11-15T21:43:28;96.20;;;29.77;;
26271;SDS011;13997;48.902;12.472;2022-11-15T21:46:00;124.88;;;32.60;;
26271;SDS011;13997;48.902;12.472;2022-11-15T21:48:29;106.63;;;32.25;;
26271;SDS011;13997;48.902;12.472;2022-11-15T21:50:56;117.63;;;32.72;;
26271;SDS011;13997;48.902;12.472;2022-11-15T21:53:23;110.10;;;30.80;;
26271;SDS011;13997;48.902;12.472;2022-11-15T21:55:50;113.03;;;29.50;;
26271;SDS011;13997;48.902;12.472;2022-11-15T21:58:16;99.75;;;30.17;;
26271;SDS011;13997;48.902;12.472;2022-11-15T22:00:43;104.53;;;31.42;;
26271;SDS011;13997;48.902;12.472;2022-11-15T22:03:27;110.65;;;31.80;;
26271;SDS011;13997;48.902;12.472;2022-11-15T22:05:53;94.60;;;32.13;;
26271;SDS011;13997;48.902;12.472;2022-11-15T22:08:19;114.88;;;31.15;;
26271;SDS011;13997;48.902;12.472;2022-11-15T22:10:45;149.90;;;31.92;;
26271;SDS011;13997;48.902;12.472;2022-11-15T22:13:12;112.70;;;32.30;;
26271;SDS011;13997;48.902;12.472;2022-11-15T22:15:37;154.93;;;34.30;;
26271;SDS011;13997;48.902;12.472;2022-11-15T22:18:03;116.60;;;33.33;;
26271;SDS011;13997;48.902;12.472;2022-11-15T22:20:28;159.95;;;35.13;;